ETD611 OEDF-OMAA
Flight info
| Callsign | ETD611 |
|---|---|
| Flight time | 1h 11m |
| Altitude | 24000 |
| Route | RYDAN2E/34L RYDAN DCT OEAH/N0428F250 DCT ULBAM DCT RIBOT DCT GOLGU DCT ESROM DCT DANOK DCT BOPIT |
| Aircraft | A21N/M-SDE2E3FGHIRWXY/LB1 |
Departure
| Time | 2026-04-16 12:10 |
|---|---|
| Airport | King Fahd International Airport (OEDF) |
Arrival
| Time | 2026-04-16 13:21 |
|---|---|
| Airport | Zayed International Airport (OMAA) |
| Time | Latitude | Longitude | Altitude | Speed | Heading |
|---|---|---|---|---|---|
| 2026-04-16 11:47 | 26.46882 | 49.79505 | 77 ft | 0 kts | 76° |
| 2026-04-16 12:00 | 26.46880 | 49.79494 | 77 ft | 2 kts | 75° |
| 2026-04-16 12:01 | 26.46876 | 49.79478 | 77 ft | 2 kts | 76° |
| 2026-04-16 12:01 | 26.46872 | 49.79462 | 77 ft | 2 kts | 76° |
| 2026-04-16 12:01 | 26.46869 | 49.79446 | 77 ft | 2 kts | 88° |
| 2026-04-16 12:02 | 26.46877 | 49.79414 | 77 ft | 2 kts | 127° |
| 2026-04-16 12:02 | 26.46887 | 49.79403 | 77 ft | 2 kts | 146° |
| 2026-04-16 12:02 | 26.46895 | 49.79398 | 77 ft | 1 kts | 156° |
| 2026-04-16 12:02 | 26.46899 | 49.79396 | 77 ft | 0 kts | 156° |
| 2026-04-16 12:04 | 26.46858 | 49.79414 | 77 ft | 14 kts | 163° |
| 2026-04-16 12:04 | 26.46758 | 49.79445 | 77 ft | 15 kts | 165° |
| 2026-04-16 12:04 | 26.46650 | 49.79478 | 77 ft | 16 kts | 168° |
| 2026-04-16 12:05 | 26.46531 | 49.79492 | 77 ft | 17 kts | 178° |
| 2026-04-16 12:05 | 26.46449 | 49.79412 | 77 ft | 17 kts | 253° |
| 2026-04-16 12:05 | 26.46416 | 49.79277 | 77 ft | 18 kts | 248° |
| 2026-04-16 12:05 | 26.46309 | 49.79248 | 77 ft | 18 kts | 166° |
| 2026-04-16 12:06 | 26.46184 | 49.79286 | 77 ft | 19 kts | 165° |
| 2026-04-16 12:06 | 26.46053 | 49.79326 | 77 ft | 19 kts | 165° |
| 2026-04-16 12:06 | 26.45917 | 49.79365 | 77 ft | 20 kts | 166° |
| 2026-04-16 12:06 | 26.45780 | 49.79411 | 77 ft | 20 kts | 164° |
| 2026-04-16 12:07 | 26.45639 | 49.79457 | 77 ft | 21 kts | 165° |
| 2026-04-16 12:07 | 26.45495 | 49.79491 | 77 ft | 21 kts | 187° |
| 2026-04-16 12:07 | 26.45435 | 49.79386 | 77 ft | 1 kts | 254° |
| 2026-04-16 12:07 | 26.45433 | 49.79379 | 77 ft | 0 kts | 254° |
| 2026-04-16 12:08 | 26.45430 | 49.79369 | 77 ft | 2 kts | 255° |
| 2026-04-16 12:08 | 26.45422 | 49.79335 | 77 ft | 7 kts | 256° |
| 2026-04-16 12:08 | 26.45425 | 49.79259 | 77 ft | 12 kts | 289° |
| 2026-04-16 12:08 | 26.45492 | 49.79178 | 77 ft | 16 kts | 340° |
| 2026-04-16 12:09 | 26.45528 | 49.79165 | 77 ft | 0 kts | 343° |
| 2026-04-16 12:09 | 26.45534 | 49.79163 | 77 ft | 1 kts | 344° |
| 2026-04-16 12:09 | 26.45667 | 49.79119 | 77 ft | 53 kts | 346° |
| 2026-04-16 12:09 | 26.46253 | 49.78942 | 78 ft | 118 kts | 345° |
| 2026-04-16 12:10 | 26.47213 | 49.78640 | 123 ft | 163 kts | 342° |
| 2026-04-16 12:10 | 26.48302 | 49.78297 | 693 ft | 161 kts | 343° |
| 2026-04-16 12:10 | 26.49331 | 49.77981 | 1467 ft | 151 kts | 342° |
| 2026-04-16 12:10 | 26.50325 | 49.77676 | 2098 ft | 150 kts | 342° |
| 2026-04-16 12:11 | 26.51356 | 49.77356 | 2486 ft | 160 kts | 342° |
| 2026-04-16 12:11 | 26.52482 | 49.77006 | 2799 ft | 176 kts | 342° |
| 2026-04-16 12:11 | 26.53714 | 49.76637 | 3124 ft | 193 kts | 347° |
| 2026-04-16 12:11 | 26.55103 | 49.76828 | 3449 ft | 216 kts | 25° |
| 2026-04-16 12:12 | 26.56116 | 49.78142 | 3818 ft | 245 kts | 66° |
| 2026-04-16 12:12 | 26.56407 | 49.80062 | 4424 ft | 257 kts | 82° |
| 2026-04-16 12:12 | 26.56508 | 49.82076 | 5156 ft | 261 kts | 83° |
| 2026-04-16 12:12 | 26.56630 | 49.84100 | 5912 ft | 264 kts | 82° |
| 2026-04-16 12:13 | 26.56801 | 49.86138 | 6531 ft | 266 kts | 81° |
| 2026-04-16 12:13 | 26.57006 | 49.88200 | 6968 ft | 271 kts | 80° |
| 2026-04-16 12:13 | 26.57232 | 49.90299 | 7722 ft | 273 kts | 80° |
| 2026-04-16 12:13 | 26.57458 | 49.92374 | 8571 ft | 273 kts | 81° |
| 2026-04-16 12:14 | 26.57379 | 49.94490 | 9289 ft | 279 kts | 108° |
| 2026-04-16 12:14 | 26.56327 | 49.96272 | 10008 ft | 280 kts | 142° |
| 2026-04-16 12:14 | 26.54581 | 49.97187 | 10515 ft | 286 kts | 173° |
| 2026-04-16 12:14 | 26.52564 | 49.97291 | 10920 ft | 297 kts | 184° |
| 2026-04-16 12:15 | 26.50432 | 49.97224 | 11263 ft | 314 kts | 183° |
| 2026-04-16 12:15 | 26.48174 | 49.97237 | 11595 ft | 332 kts | 181° |
| 2026-04-16 12:15 | 26.45811 | 49.97328 | 11903 ft | 349 kts | 182° |
| 2026-04-16 12:15 | 26.43322 | 49.97004 | 12198 ft | 363 kts | 196° |
| 2026-04-16 12:16 | 26.40944 | 49.95937 | 12481 ft | 375 kts | 211° |
| 2026-04-16 12:16 | 26.38700 | 49.94387 | 12751 ft | 389 kts | 214° |
| 2026-04-16 12:16 | 26.36398 | 49.92722 | 13088 ft | 401 kts | 215° |
| 2026-04-16 12:16 | 26.34031 | 49.91008 | 13662 ft | 405 kts | 214° |
| 2026-04-16 12:17 | 26.31658 | 49.89305 | 14323 ft | 407 kts | 214° |
| 2026-04-16 12:17 | 26.29258 | 49.87592 | 14910 ft | 410 kts | 214° |
| 2026-04-16 12:17 | 26.26833 | 49.85866 | 15513 ft | 412 kts | 214° |
| 2026-04-16 12:17 | 26.24444 | 49.84169 | 16113 ft | 414 kts | 214° |
| 2026-04-16 12:18 | 26.21978 | 49.82422 | 16746 ft | 415 kts | 214° |
| 2026-04-16 12:18 | 26.19560 | 49.80709 | 17344 ft | 417 kts | 214° |
| 2026-04-16 12:18 | 26.17109 | 49.78975 | 17867 ft | 419 kts | 214° |
| 2026-04-16 12:18 | 26.14624 | 49.77216 | 18372 ft | 422 kts | 214° |
| 2026-04-16 12:19 | 26.12125 | 49.75455 | 18849 ft | 426 kts | 213° |
| 2026-04-16 12:19 | 26.09445 | 49.73956 | 19285 ft | 432 kts | 205° |
| 2026-04-16 12:19 | 26.06588 | 49.72964 | 19743 ft | 438 kts | 196° |
| 2026-04-16 12:19 | 26.03522 | 49.72468 | 20195 ft | 444 kts | 188° |
| 2026-04-16 12:20 | 26.00455 | 49.72230 | 20662 ft | 447 kts | 187° |
| 2026-04-16 12:20 | 25.97306 | 49.72030 | 21111 ft | 449 kts | 186° |
| 2026-04-16 12:20 | 25.94203 | 49.71838 | 21499 ft | 453 kts | 186° |
| 2026-04-16 12:20 | 25.91048 | 49.71637 | 21911 ft | 455 kts | 187° |
| 2026-04-16 12:21 | 25.87849 | 49.71427 | 22311 ft | 458 kts | 187° |
| 2026-04-16 12:21 | 25.84621 | 49.71213 | 22714 ft | 460 kts | 187° |
| 2026-04-16 12:21 | 25.81447 | 49.71001 | 23074 ft | 463 kts | 187° |
| 2026-04-16 12:21 | 25.78215 | 49.70789 | 23415 ft | 467 kts | 186° |
| 2026-04-16 12:22 | 25.74908 | 49.70985 | 23712 ft | 476 kts | 173° |
| 2026-04-16 12:22 | 25.71742 | 49.72078 | 23859 ft | 485 kts | 159° |
| 2026-04-16 12:22 | 25.68846 | 49.74072 | 23868 ft | 491 kts | 144° |
| 2026-04-16 12:22 | 25.66274 | 49.76546 | 23876 ft | 492 kts | 141° |
| 2026-04-16 12:23 | 25.63749 | 49.79068 | 23870 ft | 492 kts | 141° |
| 2026-04-16 12:23 | 25.61185 | 49.81642 | 23871 ft | 493 kts | 141° |
| 2026-04-16 12:23 | 25.58658 | 49.84169 | 23876 ft | 493 kts | 141° |
| 2026-04-16 12:23 | 25.56093 | 49.86723 | 23876 ft | 492 kts | 141° |
| 2026-04-16 12:24 | 25.53560 | 49.89234 | 23882 ft | 495 kts | 141° |
| 2026-04-16 12:24 | 25.50962 | 49.91798 | 23877 ft | 504 kts | 141° |
| 2026-04-16 12:24 | 25.48318 | 49.94403 | 23876 ft | 506 kts | 141° |
| 2026-04-16 12:24 | 25.45716 | 49.96967 | 23875 ft | 506 kts | 141° |
| 2026-04-16 12:25 | 25.43082 | 49.99559 | 23878 ft | 507 kts | 141° |
| 2026-04-16 12:25 | 25.40425 | 50.02171 | 23883 ft | 507 kts | 141° |
| 2026-04-16 12:25 | 25.37773 | 50.04777 | 23881 ft | 507 kts | 141° |
| 2026-04-16 12:25 | 25.35155 | 50.07348 | 23881 ft | 508 kts | 141° |
| 2026-04-16 12:26 | 25.32504 | 50.09949 | 23885 ft | 507 kts | 141° |
| 2026-04-16 12:26 | 25.29848 | 50.12557 | 23881 ft | 507 kts | 141° |
| 2026-04-16 12:26 | 25.27231 | 50.15122 | 23883 ft | 507 kts | 141° |
| 2026-04-16 12:26 | 25.24591 | 50.17709 | 23882 ft | 507 kts | 141° |
| 2026-04-16 12:27 | 25.21934 | 50.20310 | 23882 ft | 507 kts | 141° |
| 2026-04-16 12:27 | 25.19282 | 50.22904 | 23880 ft | 507 kts | 141° |
| 2026-04-16 12:27 | 25.16656 | 50.25471 | 23887 ft | 507 kts | 141° |
| 2026-04-16 12:27 | 25.14031 | 50.28038 | 23889 ft | 506 kts | 141° |
| 2026-04-16 12:28 | 25.11385 | 50.30622 | 23890 ft | 506 kts | 141° |
| 2026-04-16 12:28 | 25.08721 | 50.33223 | 23889 ft | 506 kts | 141° |
| 2026-04-16 12:28 | 25.06100 | 50.35780 | 23887 ft | 507 kts | 141° |
| 2026-04-16 12:28 | 25.03449 | 50.38364 | 23887 ft | 507 kts | 141° |
| 2026-04-16 12:29 | 25.00832 | 50.40913 | 23891 ft | 506 kts | 141° |
| 2026-04-16 12:29 | 24.98175 | 50.43500 | 23890 ft | 506 kts | 141° |
| 2026-04-16 12:29 | 24.95533 | 50.46070 | 23890 ft | 506 kts | 141° |
| 2026-04-16 12:29 | 24.92908 | 50.48623 | 23889 ft | 506 kts | 141° |
| 2026-04-16 12:30 | 24.90252 | 50.51206 | 23889 ft | 506 kts | 141° |
| 2026-04-16 12:30 | 24.87594 | 50.53782 | 23889 ft | 505 kts | 141° |
| 2026-04-16 12:30 | 24.84951 | 50.56333 | 23889 ft | 505 kts | 141° |
| 2026-04-16 12:30 | 24.82332 | 50.58863 | 23888 ft | 505 kts | 141° |
| 2026-04-16 12:31 | 24.79677 | 50.61429 | 23887 ft | 505 kts | 141° |
| 2026-04-16 12:31 | 24.77051 | 50.63971 | 23886 ft | 505 kts | 141° |
| 2026-04-16 12:31 | 24.74394 | 50.66550 | 23883 ft | 504 kts | 141° |
| 2026-04-16 12:31 | 24.71769 | 50.69111 | 23881 ft | 504 kts | 141° |
| 2026-04-16 12:32 | 24.69158 | 50.71653 | 23879 ft | 504 kts | 141° |
| 2026-04-16 12:32 | 24.66532 | 50.74201 | 23880 ft | 504 kts | 142° |
| 2026-04-16 12:32 | 24.63889 | 50.76764 | 23877 ft | 504 kts | 142° |
| 2026-04-16 12:32 | 24.61245 | 50.79321 | 23878 ft | 504 kts | 141° |
| 2026-04-16 12:33 | 24.58615 | 50.81859 | 23877 ft | 505 kts | 141° |
| 2026-04-16 12:33 | 24.55961 | 50.84419 | 23877 ft | 505 kts | 142° |
| 2026-04-16 12:33 | 24.53365 | 50.87026 | 23873 ft | 506 kts | 139° |
| 2026-04-16 12:33 | 24.50893 | 50.89735 | 23873 ft | 507 kts | 137° |
| 2026-04-16 12:34 | 24.48428 | 50.92499 | 23872 ft | 506 kts | 137° |
| 2026-04-16 12:34 | 24.45962 | 50.95271 | 23873 ft | 507 kts | 137° |
| 2026-04-16 12:34 | 24.43500 | 50.98041 | 23870 ft | 507 kts | 137° |
| 2026-04-16 12:34 | 24.41047 | 51.00798 | 23872 ft | 506 kts | 137° |
| 2026-04-16 12:35 | 24.38580 | 51.03571 | 23874 ft | 507 kts | 137° |
| 2026-04-16 12:35 | 24.36109 | 51.06343 | 23870 ft | 506 kts | 137° |
| 2026-04-16 12:35 | 24.33646 | 51.09103 | 23872 ft | 506 kts | 137° |
| 2026-04-16 12:35 | 24.31181 | 51.11865 | 23871 ft | 507 kts | 137° |
| 2026-04-16 12:36 | 24.28725 | 51.14614 | 23870 ft | 506 kts | 137° |
| 2026-04-16 12:36 | 24.26274 | 51.17358 | 23874 ft | 507 kts | 137° |
| 2026-04-16 12:36 | 24.23791 | 51.20134 | 23872 ft | 507 kts | 137° |
| 2026-04-16 12:36 | 24.21315 | 51.22902 | 23874 ft | 507 kts | 137° |
| 2026-04-16 12:37 | 24.18842 | 51.25664 | 23872 ft | 507 kts | 137° |
| 2026-04-16 12:37 | 24.16375 | 51.28418 | 23868 ft | 507 kts | 137° |
| 2026-04-16 12:37 | 24.13930 | 51.31147 | 23867 ft | 507 kts | 137° |
| 2026-04-16 12:37 | 24.11441 | 51.33923 | 23861 ft | 507 kts | 137° |
| 2026-04-16 12:38 | 24.08962 | 51.36688 | 23858 ft | 506 kts | 137° |
| 2026-04-16 12:38 | 24.06489 | 51.39442 | 23852 ft | 506 kts | 137° |
| 2026-04-16 12:38 | 24.04034 | 51.42175 | 23854 ft | 505 kts | 137° |
| 2026-04-16 12:38 | 24.01581 | 51.44905 | 23856 ft | 506 kts | 137° |
| 2026-04-16 12:39 | 23.99089 | 51.47676 | 23854 ft | 505 kts | 137° |
| 2026-04-16 12:39 | 23.96645 | 51.50389 | 23852 ft | 506 kts | 137° |
| 2026-04-16 12:39 | 23.94141 | 51.53171 | 23856 ft | 507 kts | 137° |
| 2026-04-16 12:39 | 23.91677 | 51.55905 | 23854 ft | 506 kts | 137° |
| 2026-04-16 12:40 | 23.89209 | 51.58643 | 23851 ft | 507 kts | 137° |
| 2026-04-16 12:40 | 23.86713 | 51.61392 | 23851 ft | 507 kts | 137° |
| 2026-04-16 12:40 | 23.84212 | 51.64149 | 23855 ft | 507 kts | 137° |
| 2026-04-16 12:40 | 23.81725 | 51.66892 | 23850 ft | 506 kts | 137° |
| 2026-04-16 12:41 | 23.79267 | 51.69622 | 23851 ft | 507 kts | 137° |
| 2026-04-16 12:41 | 23.76793 | 51.72371 | 23848 ft | 506 kts | 137° |
| 2026-04-16 12:41 | 23.74305 | 51.75131 | 23852 ft | 506 kts | 137° |
| 2026-04-16 12:41 | 23.71831 | 51.77869 | 23849 ft | 507 kts | 137° |
| 2026-04-16 12:42 | 23.69358 | 51.80604 | 23845 ft | 507 kts | 137° |
| 2026-04-16 12:42 | 23.66890 | 51.83326 | 23851 ft | 506 kts | 137° |
| 2026-04-16 12:42 | 23.64407 | 51.86069 | 23851 ft | 507 kts | 137° |
| 2026-04-16 12:42 | 23.61935 | 51.88793 | 23852 ft | 507 kts | 137° |
| 2026-04-16 12:43 | 23.59424 | 51.91558 | 23853 ft | 508 kts | 137° |
| 2026-04-16 12:43 | 23.56969 | 51.94261 | 23858 ft | 509 kts | 137° |
| 2026-04-16 12:43 | 23.54485 | 51.96993 | 23858 ft | 508 kts | 137° |
| 2026-04-16 12:43 | 23.51994 | 51.99734 | 23860 ft | 507 kts | 137° |
| 2026-04-16 12:44 | 23.49505 | 52.02470 | 23852 ft | 508 kts | 137° |
| 2026-04-16 12:44 | 23.47032 | 52.05188 | 23857 ft | 508 kts | 137° |
| 2026-04-16 12:44 | 23.44523 | 52.07944 | 23856 ft | 507 kts | 137° |
| 2026-04-16 12:44 | 23.42033 | 52.10675 | 23854 ft | 507 kts | 137° |
| 2026-04-16 12:45 | 23.39568 | 52.13379 | 23856 ft | 508 kts | 137° |
| 2026-04-16 12:45 | 23.37090 | 52.16096 | 23853 ft | 508 kts | 137° |
| 2026-04-16 12:45 | 23.34587 | 52.18838 | 23857 ft | 508 kts | 137° |
| 2026-04-16 12:45 | 23.32104 | 52.21558 | 23854 ft | 508 kts | 137° |
| 2026-04-16 12:46 | 23.29584 | 52.24318 | 23855 ft | 508 kts | 137° |
| 2026-04-16 12:46 | 23.27101 | 52.27035 | 23853 ft | 509 kts | 137° |
| 2026-04-16 12:46 | 23.24620 | 52.29749 | 23861 ft | 509 kts | 137° |
| 2026-04-16 12:46 | 23.22126 | 52.32477 | 23863 ft | 509 kts | 137° |
| 2026-04-16 12:47 | 23.19631 | 52.35231 | 23854 ft | 511 kts | 135° |
| 2026-04-16 12:47 | 23.17581 | 52.38422 | 23836 ft | 516 kts | 118° |
| 2026-04-16 12:47 | 23.16459 | 52.42117 | 23853 ft | 520 kts | 101° |
| 2026-04-16 12:47 | 23.16352 | 52.46016 | 23854 ft | 521 kts | 83° |
| 2026-04-16 12:48 | 23.17268 | 52.49792 | 23854 ft | 519 kts | 66° |
| 2026-04-16 12:48 | 23.18813 | 52.53332 | 23871 ft | 518 kts | 62° |
| 2026-04-16 12:48 | 23.20502 | 52.56778 | 23868 ft | 517 kts | 59° |
| 2026-04-16 12:48 | 23.22278 | 52.60160 | 23872 ft | 517 kts | 59° |
| 2026-04-16 12:49 | 23.24081 | 52.63576 | 23872 ft | 517 kts | 59° |
| 2026-04-16 12:49 | 23.25862 | 52.66978 | 23870 ft | 517 kts | 60° |
| 2026-04-16 12:49 | 23.27618 | 52.70368 | 23875 ft | 516 kts | 60° |
| 2026-04-16 12:49 | 23.29402 | 52.73834 | 23883 ft | 517 kts | 60° |
| 2026-04-16 12:50 | 23.31138 | 52.77212 | 23886 ft | 517 kts | 60° |
| 2026-04-16 12:50 | 23.32896 | 52.80636 | 23882 ft | 517 kts | 60° |
| 2026-04-16 12:50 | 23.34654 | 52.84064 | 23885 ft | 516 kts | 60° |
| 2026-04-16 12:50 | 23.36393 | 52.87456 | 23889 ft | 516 kts | 60° |
| 2026-04-16 12:51 | 23.38157 | 52.90895 | 23893 ft | 516 kts | 60° |
| 2026-04-16 12:51 | 23.39910 | 52.94312 | 23893 ft | 517 kts | 60° |
| 2026-04-16 12:51 | 23.41681 | 52.97732 | 23895 ft | 517 kts | 59° |
| 2026-04-16 12:51 | 23.43503 | 53.01150 | 23895 ft | 516 kts | 59° |
| 2026-04-16 12:52 | 23.45306 | 53.04507 | 23891 ft | 516 kts | 59° |
| 2026-04-16 12:52 | 23.47122 | 53.07885 | 23885 ft | 515 kts | 59° |
| 2026-04-16 12:52 | 23.48932 | 53.11262 | 23892 ft | 515 kts | 59° |
| 2026-04-16 12:52 | 23.50709 | 53.14585 | 23889 ft | 515 kts | 59° |
| 2026-04-16 12:53 | 23.52510 | 53.17959 | 23890 ft | 515 kts | 59° |
| 2026-04-16 12:53 | 23.54318 | 53.21353 | 23892 ft | 515 kts | 59° |
| 2026-04-16 12:53 | 23.56117 | 53.24733 | 23887 ft | 515 kts | 59° |
| 2026-04-16 12:53 | 23.57912 | 53.28107 | 23881 ft | 515 kts | 59° |
| 2026-04-16 12:54 | 23.59706 | 53.31484 | 23885 ft | 515 kts | 59° |
| 2026-04-16 12:54 | 23.61505 | 53.34873 | 23876 ft | 515 kts | 59° |
| 2026-04-16 12:54 | 23.63293 | 53.38245 | 23885 ft | 516 kts | 59° |
| 2026-04-16 12:54 | 23.65076 | 53.41607 | 23876 ft | 515 kts | 59° |
| 2026-04-16 12:55 | 23.66865 | 53.44986 | 23878 ft | 515 kts | 59° |
| 2026-04-16 12:55 | 23.68665 | 53.48385 | 23873 ft | 514 kts | 59° |
| 2026-04-16 12:55 | 23.70435 | 53.51732 | 23872 ft | 514 kts | 59° |
| 2026-04-16 12:55 | 23.72245 | 53.55135 | 23870 ft | 513 kts | 59° |
| 2026-04-16 12:56 | 23.74030 | 53.58481 | 23867 ft | 514 kts | 58° |
| 2026-04-16 12:56 | 23.75821 | 53.61832 | 23860 ft | 514 kts | 59° |
| 2026-04-16 12:56 | 23.77630 | 53.65226 | 23857 ft | 514 kts | 59° |
| 2026-04-16 12:56 | 23.79404 | 53.68568 | 23864 ft | 514 kts | 59° |
| 2026-04-16 12:57 | 23.81191 | 53.71945 | 23868 ft | 514 kts | 59° |
| 2026-04-16 12:57 | 23.82994 | 53.75352 | 23865 ft | 514 kts | 59° |
| 2026-04-16 12:57 | 23.84746 | 53.78660 | 23859 ft | 503 kts | 59° |
| 2026-04-16 12:57 | 23.86501 | 53.81970 | 23861 ft | 499 kts | 59° |
| 2026-04-16 12:58 | 23.88249 | 53.85266 | 23856 ft | 498 kts | 59° |
| 2026-04-16 12:58 | 23.89969 | 53.88510 | 23859 ft | 498 kts | 59° |
| 2026-04-16 12:58 | 23.91695 | 53.91765 | 23860 ft | 498 kts | 59° |
| 2026-04-16 12:58 | 23.93437 | 53.95056 | 23859 ft | 498 kts | 59° |
| 2026-04-16 12:59 | 23.95162 | 53.98318 | 23860 ft | 498 kts | 59° |
| 2026-04-16 12:59 | 23.96889 | 54.01584 | 23856 ft | 498 kts | 59° |
| 2026-04-16 12:59 | 23.98632 | 54.04883 | 23855 ft | 496 kts | 59° |
| 2026-04-16 13:00 | 24.02214 | 54.11328 | 23846 ft | 495 kts | 57° |
| 2026-04-16 13:00 | 24.04019 | 54.14484 | 23630 ft | 490 kts | 57° |
| 2026-04-16 13:00 | 24.05820 | 54.17626 | 22998 ft | 486 kts | 57° |
| 2026-04-16 13:00 | 24.07609 | 54.20748 | 22245 ft | 483 kts | 57° |
| 2026-04-16 13:01 | 24.09376 | 54.23837 | 21573 ft | 478 kts | 57° |
| 2026-04-16 13:01 | 24.11126 | 54.26898 | 20947 ft | 471 kts | 57° |
| 2026-04-16 13:01 | 24.12846 | 54.29890 | 20343 ft | 465 kts | 57° |
| 2026-04-16 13:01 | 24.14579 | 54.32910 | 19695 ft | 460 kts | 57° |
| 2026-04-16 13:02 | 24.16249 | 54.35831 | 19067 ft | 454 kts | 57° |
| 2026-04-16 13:02 | 24.17918 | 54.38759 | 18614 ft | 444 kts | 57° |
| 2026-04-16 13:02 | 24.19509 | 54.41562 | 18401 ft | 429 kts | 57° |
| 2026-04-16 13:02 | 24.21053 | 54.44282 | 18180 ft | 415 kts | 57° |
| 2026-04-16 13:03 | 24.22559 | 54.46937 | 17955 ft | 402 kts | 56° |
| 2026-04-16 13:03 | 24.24020 | 54.49516 | 17746 ft | 390 kts | 56° |
| 2026-04-16 13:03 | 24.25425 | 54.51995 | 17548 ft | 378 kts | 56° |
| 2026-04-16 13:03 | 24.26792 | 54.54407 | 17345 ft | 367 kts | 56° |
| 2026-04-16 13:04 | 24.28200 | 54.56699 | 17134 ft | 354 kts | 47° |
| 2026-04-16 13:04 | 24.30004 | 54.58432 | 16948 ft | 340 kts | 30° |
| 2026-04-16 13:04 | 24.32005 | 54.59694 | 16786 ft | 328 kts | 26° |
| 2026-04-16 13:04 | 24.33990 | 54.60870 | 16573 ft | 320 kts | 26° |
| 2026-04-16 13:05 | 24.35938 | 54.62024 | 16224 ft | 317 kts | 26° |
| 2026-04-16 13:05 | 24.37885 | 54.63184 | 15817 ft | 315 kts | 26° |
| 2026-04-16 13:05 | 24.39833 | 54.64357 | 15420 ft | 314 kts | 26° |
| 2026-04-16 13:05 | 24.41753 | 54.65519 | 15034 ft | 311 kts | 27° |
| 2026-04-16 13:06 | 24.43688 | 54.66705 | 14636 ft | 310 kts | 27° |
| 2026-04-16 13:06 | 24.45560 | 54.67852 | 14260 ft | 308 kts | 27° |
| 2026-04-16 13:06 | 24.47435 | 54.69000 | 13873 ft | 306 kts | 28° |
| 2026-04-16 13:06 | 24.49070 | 54.70513 | 13410 ft | 312 kts | 53° |
| 2026-04-16 13:07 | 24.49821 | 54.72742 | 13014 ft | 315 kts | 84° |
| 2026-04-16 13:07 | 24.49449 | 54.75117 | 12635 ft | 317 kts | 115° |
| 2026-04-16 13:07 | 24.48165 | 54.77117 | 12227 ft | 316 kts | 131° |
| 2026-04-16 13:07 | 24.46673 | 54.78897 | 11841 ft | 313 kts | 132° |
| 2026-04-16 13:08 | 24.45241 | 54.80656 | 11686 ft | 303 kts | 130° |
| 2026-04-16 13:08 | 24.43888 | 54.82431 | 11519 ft | 295 kts | 129° |
| 2026-04-16 13:08 | 24.42613 | 54.84177 | 11239 ft | 291 kts | 128° |
| 2026-04-16 13:08 | 24.41373 | 54.85908 | 10884 ft | 290 kts | 127° |
| 2026-04-16 13:09 | 24.40132 | 54.87652 | 10517 ft | 289 kts | 127° |
| 2026-04-16 13:09 | 24.38900 | 54.89383 | 10167 ft | 287 kts | 127° |
| 2026-04-16 13:09 | 24.37672 | 54.91110 | 9798 ft | 285 kts | 128° |
| 2026-04-16 13:09 | 24.36465 | 54.92805 | 9159 ft | 290 kts | 128° |
| 2026-04-16 13:10 | 24.35199 | 54.94579 | 8422 ft | 297 kts | 128° |
| 2026-04-16 13:10 | 24.33946 | 54.96334 | 8108 ft | 289 kts | 128° |
| 2026-04-16 13:10 | 24.32725 | 54.98040 | 7875 ft | 281 kts | 128° |
| 2026-04-16 13:10 | 24.31529 | 54.99714 | 7526 ft | 279 kts | 128° |
| 2026-04-16 13:11 | 24.30327 | 55.01396 | 7171 ft | 278 kts | 128° |
| 2026-04-16 13:11 | 24.28946 | 55.02824 | 6775 ft | 276 kts | 155° |
| 2026-04-16 13:11 | 24.27111 | 55.03237 | 6470 ft | 261 kts | 193° |
| 2026-04-16 13:11 | 24.25548 | 55.02500 | 6343 ft | 237 kts | 225° |
| 2026-04-16 13:12 | 24.24454 | 55.01242 | 6167 ft | 224 kts | 236° |
| 2026-04-16 13:12 | 24.23466 | 54.99932 | 5850 ft | 224 kts | 236° |
| 2026-04-16 13:12 | 24.22733 | 54.98520 | 5617 ft | 207 kts | 258° |
| 2026-04-16 13:12 | 24.22737 | 54.96959 | 5078 ft | 207 kts | 287° |
| 2026-04-16 13:13 | 24.23381 | 54.95574 | 4637 ft | 205 kts | 301° |
| 2026-04-16 13:13 | 24.24070 | 54.94255 | 4421 ft | 194 kts | 295° |
| 2026-04-16 13:13 | 24.24534 | 54.92916 | 4207 ft | 183 kts | 290° |
| 2026-04-16 13:13 | 24.24949 | 54.91634 | 3976 ft | 171 kts | 294° |
| 2026-04-16 13:14 | 24.25457 | 54.90508 | 3762 ft | 160 kts | 301° |
| 2026-04-16 13:14 | 24.26046 | 54.89512 | 3561 ft | 150 kts | 305° |
| 2026-04-16 13:14 | 24.26656 | 54.88625 | 3338 ft | 143 kts | 307° |
| 2026-04-16 13:14 | 24.27261 | 54.87772 | 3041 ft | 140 kts | 307° |
| 2026-04-16 13:15 | 24.27857 | 54.86933 | 2941 ft | 139 kts | 307° |
| 2026-04-16 13:15 | 24.28452 | 54.86092 | 2940 ft | 140 kts | 307° |
| 2026-04-16 13:15 | 24.29053 | 54.85242 | 2959 ft | 141 kts | 307° |
| 2026-04-16 13:15 | 24.29661 | 54.84381 | 2952 ft | 141 kts | 307° |
| 2026-04-16 13:16 | 24.30261 | 54.83531 | 2940 ft | 141 kts | 307° |
| 2026-04-16 13:16 | 24.30862 | 54.82679 | 2932 ft | 140 kts | 307° |
| 2026-04-16 13:16 | 24.31453 | 54.81842 | 2935 ft | 140 kts | 307° |
| 2026-04-16 13:16 | 24.32054 | 54.80991 | 2937 ft | 140 kts | 307° |
| 2026-04-16 13:17 | 24.32662 | 54.80131 | 2936 ft | 141 kts | 307° |
| 2026-04-16 13:17 | 24.33259 | 54.79288 | 2812 ft | 140 kts | 307° |
| 2026-04-16 13:17 | 24.33859 | 54.78440 | 2632 ft | 140 kts | 307° |
| 2026-04-16 13:17 | 24.34454 | 54.77601 | 2449 ft | 139 kts | 307° |
| 2026-04-16 13:18 | 24.35055 | 54.76752 | 2268 ft | 139 kts | 307° |
| 2026-04-16 13:18 | 24.35644 | 54.75922 | 2098 ft | 138 kts | 307° |
| 2026-04-16 13:18 | 24.36234 | 54.75089 | 1922 ft | 138 kts | 307° |
| 2026-04-16 13:18 | 24.36821 | 54.74260 | 1746 ft | 137 kts | 307° |
| 2026-04-16 13:19 | 24.37413 | 54.73424 | 1567 ft | 137 kts | 307° |
| 2026-04-16 13:19 | 24.37995 | 54.72604 | 1395 ft | 137 kts | 307° |
| 2026-04-16 13:19 | 24.38578 | 54.71783 | 1219 ft | 136 kts | 307° |
| 2026-04-16 13:19 | 24.39171 | 54.70947 | 1042 ft | 135 kts | 307° |
| 2026-04-16 13:20 | 24.39747 | 54.70128 | 856 ft | 135 kts | 307° |
| 2026-04-16 13:20 | 24.40337 | 54.69301 | 636 ft | 135 kts | 307° |
| 2026-04-16 13:20 | 24.40925 | 54.68474 | 491 ft | 135 kts | 306° |
| 2026-04-16 13:20 | 24.41518 | 54.67640 | 340 ft | 137 kts | 307° |
| 2026-04-16 13:21 | 24.42107 | 54.66814 | 180 ft | 136 kts | 307° |
| 2026-04-16 13:21 | 24.42687 | 54.65999 | 92 ft | 124 kts | 307° |
| 2026-04-16 13:21 | 24.43069 | 54.65459 | 91 ft | 52 kts | 307° |
| 2026-04-16 13:21 | 24.43284 | 54.65152 | 91 ft | 47 kts | 310° |
| 2026-04-16 13:22 | 24.43512 | 54.64922 | 91 ft | 42 kts | 333° |
| 2026-04-16 13:22 | 24.43756 | 54.64783 | 91 ft | 36 kts | 317° |
| 2026-04-16 13:22 | 24.43887 | 54.64692 | 91 ft | 20 kts | 40° |
| 2026-04-16 13:22 | 24.43930 | 54.64731 | 91 ft | 1 kts | 33° |
| 2026-04-16 13:23 | 24.43931 | 54.64732 | 91 ft | 0 kts | 33° |
| 2026-04-16 13:23 | 24.43932 | 54.64733 | 91 ft | 0 kts | 33° |
| 2026-04-16 13:23 | 24.43937 | 54.64736 | 91 ft | 0 kts | 33° |
| 2026-04-16 13:24 | 24.43945 | 54.64742 | 91 ft | 3 kts | 32° |
| 2026-04-16 13:24 | 24.43978 | 54.64763 | 91 ft | 7 kts | 29° |
| 2026-04-16 13:24 | 24.44036 | 54.64769 | 91 ft | 9 kts | 335° |
| 2026-04-16 13:25 | 24.44090 | 54.64709 | 91 ft | 12 kts | 308° |
| 2026-04-16 13:25 | 24.44146 | 54.64629 | 91 ft | 13 kts | 308° |
| 2026-04-16 13:25 | 24.44204 | 54.64545 | 91 ft | 11 kts | 307° |
| 2026-04-16 13:25 | 24.44249 | 54.64483 | 91 ft | 9 kts | 308° |
| 2026-04-16 13:26 | 24.44285 | 54.64434 | 91 ft | 7 kts | 316° |
| 2026-04-16 13:26 | 24.44329 | 54.64445 | 91 ft | 6 kts | 34° |
| 2026-04-16 13:26 | 24.44363 | 54.64458 | 91 ft | 1 kts | 6° |
| 2026-04-16 13:26 | 24.44384 | 54.64458 | 91 ft | 0 kts | 357° |
| 2026-04-16 13:27 | 24.44392 | 54.64457 | 91 ft | 2 kts | 356° |
| 2026-04-16 13:27 | 24.44401 | 54.64457 | 91 ft | 1 kts | 359° |
| 2026-04-16 13:27 | 24.44402 | 54.64457 | 91 ft | 0 kts | 359° |